Time;durP1;ratioP1;P1;durP2;ratioP2;P2;SDS_P1;SDS_P2;PMS_P1;PMS_P2;Temp;Humidity;BMP_temperature;BMP_pressure;BME280_temperature;BME280_humidity;BME280_pressure;Samples;Min_cycle;Max_cycle;Signal;HPM_P1;HPM_P2
2022/12/04 00:02:16;;;;;;;;;26.00;16.75;;;;;;;;5063327;28;61721;-80
2022/12/04 00:04:41;;;;;;;;;26.00;21.25;;;;;;;;5064431;28;61706;-80
2022/12/04 00:07:07;;;;;;;;;29.75;23.50;;;;;;;;5055363;28;64417;-80
2022/12/04 00:09:32;;;;;;;;;22.75;20.75;;;;;;;;5066883;28;61649;-80
2022/12/04 00:11:57;;;;;;;;;7.00;5.25;;;;;;;;5082502;28;61894;-80
2022/12/04 00:14:23;;;;;;;;;27.00;19.00;;;;;;;;5067538;28;61671;-80
2022/12/04 00:16:49;;;;;;;;;28.50;21.75;;;;;;;;5065757;28;62000;-80
2022/12/04 00:19:14;;;;;;;;;42.50;26.00;;;;;;;;5066023;28;62005;-80
2022/12/04 00:21:40;;;;;;;;;20.00;18.00;;;;;;;;5066232;28;62116;-80
2022/12/04 00:24:05;;;;;;;;;20.00;15.25;;;;;;;;5066631;28;61727;-80
2022/12/04 00:26:30;;;;;;;;;25.00;19.50;;;;;;;;5065391;28;61832;-80
2022/12/04 00:28:56;;;;;;;;;24.00;13.50;;;;;;;;5066433;28;61906;-80
2022/12/04 00:31:22;;;;;;;;;15.50;10.75;;;;;;;;5064518;28;61846;-79
2022/12/04 00:33:48;;;;;;;;;22.50;18.00;;;;;;;;5065373;28;63314;-80
2022/12/04 00:36:14;;;;;;;;;25.50;18.50;;;;;;;;5065341;28;62647;-80
2022/12/04 00:38:41;;;;;;;;;24.75;17.25;;;;;;;;5065574;28;61762;-80
2022/12/04 00:41:07;;;;;;;;;24.25;19.75;;;;;;;;5067273;28;61866;-80
2022/12/04 00:43:33;;;;;;;;;22.75;18.75;;;;;;;;5066656;28;62212;-80
2022/12/04 00:45:58;;;;;;;;;25.75;21.00;;;;;;;;5064756;28;61907;-80
2022/12/04 00:48:23;;;;;;;;;19.25;15.50;;;;;;;;5064517;28;61714;-80
2022/12/04 00:50:48;;;;;;;;;24.75;14.25;;;;;;;;5046541;28;61760;-81
2022/12/04 00:53:14;;;;;;;;;27.25;14.75;;;;;;;;5046911;28;61891;-80
2022/12/04 00:55:40;;;;;;;;;24.25;19.25;;;;;;;;5046460;28;63559;-80
2022/12/04 00:58:06;;;;;;;;;17.00;15.00;;;;;;;;5064518;28;61834;-80
2022/12/04 01:00:32;;;;;;;;;22.75;17.25;;;;;;;;5065010;28;61912;-80
2022/12/04 01:02:57;;;;;;;;;18.75;17.25;;;;;;;;5064836;28;62185;-80
2022/12/04 01:05:22;;;;;;;;;24.25;20.75;;;;;;;;5064483;28;62050;-81
2022/12/04 01:07:48;;;;;;;;;18.50;15.00;;;;;;;;5064799;28;61953;-80
2022/12/04 01:10:13;;;;;;;;;22.75;18.75;;;;;;;;5066157;28;61702;-80
2022/12/04 01:12:38;;;;;;;;;17.50;15.25;;;;;;;;5047142;28;61807;-82
2022/12/04 01:15:04;;;;;;;;;21.50;20.00;;;;;;;;5046437;28;63748;-81
2022/12/04 01:17:29;;;;;;;;;24.75;16.00;;;;;;;;5065954;28;61794;-80
2022/12/04 01:19:54;;;;;;;;;19.75;17.25;;;;;;;;5047533;28;61935;-80
2022/12/04 01:22:20;;;;;;;;;20.75;18.25;;;;;;;;5066892;28;61828;-80
2022/12/04 01:24:45;;;;;;;;;21.75;16.25;;;;;;;;5047153;28;63604;-81
2022/12/04 01:27:10;;;;;;;;;20.50;15.75;;;;;;;;5047535;28;62282;-80
2022/12/04 01:29:36;;;;;;;;;25.25;16.00;;;;;;;;5066008;28;61828;-80
2022/12/04 01:32:01;;;;;;;;;31.75;23.00;;;;;;;;5065904;28;61812;-79
2022/12/04 01:34:26;;;;;;;;;22.25;19.75;;;;;;;;5065730;28;61833;-81
2022/12/04 01:36:52;;;;;;;;;22.25;14.75;;;;;;;;5065894;28;61960;-80
2022/12/04 01:39:17;;;;;;;;;28.50;24.00;;;;;;;;5065791;28;61902;-81
2022/12/04 01:41:43;;;;;;;;;24.25;17.25;;;;;;;;5066357;28;62015;-81
2022/12/04 01:44:11;;;;;;;;;23.75;18.00;;;;;;;;5064278;28;61903;-81
2022/12/04 01:46:37;;;;;;;;;26.00;21.50;;;;;;;;5065342;28;61735;-80
2022/12/04 01:49:03;;;;;;;;;21.25;18.00;;;;;;;;5066745;28;61746;-81
2022/12/04 01:51:32;;;;;;;;;22.00;17.75;;;;;;;;5065412;28;61786;-80
2022/12/04 01:54:02;;;;;;;;;31.25;22.75;;;;;;;;5064472;28;62865;-80
2022/12/04 01:56:35;;;;;;;;;31.25;19.50;;;;;;;;5065558;28;61833;-81
2022/12/04 01:59:02;;;;;;;;;23.75;21.00;;;;;;;;5065172;28;61882;-81
2022/12/04 02:01:30;;;;;;;;;23.50;20.00;;;;;;;;5065476;28;62015;-81
2022/12/04 02:03:57;;;;;;;;;17.75;13.75;;;;;;;;5063652;28;63108;-80
2022/12/04 02:06:22;;;;;;;;;22.00;18.00;;;;;;;;5065635;28;61789;-81
2022/12/04 02:08:48;;;;;;;;;32.00;18.00;;;;;;;;5064874;28;61625;-80
2022/12/04 02:11:21;;;;;;;;;27.00;20.25;;;;;;;;5064491;28;62017;-80
2022/12/04 02:14:03;;;;;;;;;30.75;22.25;;;;;;;;5064084;28;61852;-80
2022/12/04 02:16:34;;;;;;;;;18.00;18.00;;;;;;;;5046260;28;62024;-80
2022/12/04 02:19:18;;;;;;;;;34.75;19.75;;;;;;;;5045044;28;61989;-79
2022/12/04 02:21:47;;;;;;;;;22.00;15.50;;;;;;;;5065221;28;61781;-81
2022/12/04 02:24:18;;;;;;;;;46.25;27.75;;;;;;;;5063699;28;62269;-81
2022/12/04 02:26:46;;;;;;;;;22.25;18.50;;;;;;;;5063790;28;62157;-80
2022/12/04 02:29:14;;;;;;;;;20.00;15.75;;;;;;;;5045689;28;61759;-80
2022/12/04 02:31:48;;;;;;;;;46.00;41.50;;;;;;;;5064843;28;61916;-81
2022/12/04 02:34:17;;;;;;;;;39.75;33.75;;;;;;;;5078471;28;64970;-82
2022/12/04 02:37:14;;;;;;;;;30.25;23.00;;;;;;;;5065252;28;61943;-81
2022/12/04 02:39:53;;;;;;;;;26.00;24.75;;;;;;;;5002889;28;62115;-82
2022/12/04 02:42:37;;;;;;;;;26.50;19.25;;;;;;;;5080313;28;61785;-82
2022/12/04 02:45:07;;;;;;;;;41.50;24.00;;;;;;;;5045426;28;65098;-82
2022/12/04 02:47:33;;;;;;;;;39.25;31.50;;;;;;;;5063668;28;61780;-80
2022/12/04 02:50:00;;;;;;;;;25.00;22.25;;;;;;;;5079087;28;62052;-82
2022/12/04 02:52:32;;;;;;;;;42.75;26.00;;;;;;;;5064008;28;61853;-82
2022/12/04 02:55:01;;;;;;;;;39.25;28.00;;;;;;;;5063102;28;61981;-80
2022/12/04 02:57:30;;;;;;;;;24.50;16.00;;;;;;;;5063764;28;62045;-82
2022/12/04 02:59:56;;;;;;;;;28.50;21.75;;;;;;;;5046250;28;61727;-81
2022/12/04 03:02:38;;;;;;;;;25.00;23.00;;;;;;;;5078889;28;62063;-81
2022/12/04 03:05:06;;;;;;;;;27.00;25.00;;;;;;;;5062441;28;61993;-81
2022/12/04 03:07:47;;;;;;;;;36.25;24.25;;;;;;;;5079040;28;61769;-81
2022/12/04 03:10:14;;;;;;;;;26.00;19.25;;;;;;;;5078958;28;61830;-81
2022/12/04 03:12:53;;;;;;;;;29.75;24.00;;;;;;;;5063220;28;62132;-81
2022/12/04 03:15:22;;;;;;;;;30.00;21.50;;;;;;;;5062642;28;61652;-82
2022/12/04 03:18:10;;;;;;;;;29.50;25.25;;;;;;;;5063418;28;62059;-81
2022/12/04 03:20:35;;;;;;;;;31.50;22.00;;;;;;;;5078976;28;61830;-80
2022/12/04 03:23:19;;;;;;;;;25.25;19.25;;;;;;;;5063969;28;61980;-82
2022/12/04 03:25:53;;;;;;;;;29.00;22.25;;;;;;;;5063205;28;61955;-82
2022/12/04 03:28:30;;;;;;;;;36.50;30.00;;;;;;;;5078799;28;62116;-82
2022/12/04 03:30:58;;;;;;;;;26.25;22.75;;;;;;;;5044265;28;61847;-80
2022/12/04 03:33:30;;;;;;;;;31.00;25.25;;;;;;;;5062957;28;61913;-81
2022/12/04 03:35:59;;;;;;;;;27.75;21.75;;;;;;;;5044740;28;63675;-82
2022/12/04 03:38:43;;;;;;;;;22.25;13.50;;;;;;;;5067236;28;61609;-82
2022/12/04 03:41:13;;;;;;;;;33.75;25.50;;;;;;;;5066741;28;61497;-82
2022/12/04 03:43:41;;;;;;;;;27.50;20.50;;;;;;;;5066688;28;61842;-82
2022/12/04 03:46:10;;;;;;;;;29.00;28.00;;;;;;;;5066189;28;62986;-82
2022/12/04 03:48:35;;;;;;;;;40.00;23.50;;;;;;;;5066152;28;62326;-81
2022/12/04 03:51:06;;;;;;;;;26.00;19.25;;;;;;;;5049076;28;61987;-82
2022/12/04 03:53:35;;;;;;;;;29.75;20.25;;;;;;;;5048550;28;62212;-81
2022/12/04 03:56:05;;;;;;;;;38.50;32.25;;;;;;;;5065872;28;62628;-81
2022/12/04 03:58:33;;;;;;;;;41.25;31.75;;;;;;;;5048180;28;61826;-81
2022/12/04 04:01:00;;;;;;;;;31.50;22.00;;;;;;;;5048468;28;62033;-82
2022/12/04 04:03:30;;;;;;;;;29.50;22.50;;;;;;;;5066601;28;61940;-81
2022/12/04 04:06:01;;;;;;;;;35.50;18.00;;;;;;;;5047261;28;63722;-80
2022/12/04 04:08:32;;;;;;;;;35.25;25.25;;;;;;;;5047399;28;61802;-80
2022/12/04 04:11:04;;;;;;;;;31.00;22.00;;;;;;;;5065870;28;61921;-81
2022/12/04 04:25:14;;;;;;;;;31.75;24.75;;;;;;;;5004007;28;61717;-82
2022/12/04 04:27:39;;;;;;;;;28.75;23.50;;;;;;;;4985836;28;65178;-81
2022/12/04 04:30:05;;;;;;;;;38.50;27.25;;;;;;;;5003200;28;61927;-81
2022/12/04 04:32:37;;;;;;;;;40.00;27.25;;;;;;;;4986663;28;61839;-82
2022/12/04 04:35:11;;;;;;;;;35.50;22.00;;;;;;;;5003492;28;61886;-82
2022/12/04 04:37:42;;;;;;;;;27.75;20.75;;;;;;;;5002764;28;65219;-82
2022/12/04 04:40:24;;;;;;;;;33.75;24.75;;;;;;;;5003948;28;61990;-82
2022/12/04 04:42:52;;;;;;;;;31.25;22.00;;;;;;;;4985976;28;61928;-81
2022/12/04 04:45:26;;;;;;;;;33.25;26.75;;;;;;;;5003777;28;62127;-82
2022/12/04 04:48:12;;;;;;;;;36.25;25.75;;;;;;;;5002169;28;62100;-81
2022/12/04 04:50:37;;;;;;;;;31.00;22.50;;;;;;;;5002515;28;61876;-82
2022/12/04 04:53:05;;;;;;;;;32.50;24.25;;;;;;;;5026953;28;61863;-82
2022/12/04 04:55:33;;;;;;;;;33.75;25.25;;;;;;;;5065579;28;61699;-81
2022/12/04 04:58:28;;;;;;;;;30.00;27.25;;;;;;;;5047144;28;64734;-81
2022/12/04 05:01:12;;;;;;;;;32.25;21.50;;;;;;;;5043777;28;61846;-82
2022/12/04 05:03:38;;;;;;;;;44.00;29.50;;;;;;;;5065608;28;61934;-81
2022/12/04 05:06:05;;;;;;;;;27.00;25.75;;;;;;;;5065986;28;61826;-82
2022/12/04 05:08:30;;;;;;;;;34.00;25.50;;;;;;;;5047288;28;65267;-82
2022/12/04 05:10:55;;;;;;;;;26.50;19.25;;;;;;;;5047515;28;61914;-82
2022/12/04 05:13:20;;;;;;;;;26.25;17.50;;;;;;;;5064768;28;61821;-82
2022/12/04 05:16:15;;;;;;;;;30.75;25.75;;;;;;;;5065917;28;61823;-82
2022/12/04 05:19:52;;;;;;;;;30.75;20.50;;;;;;;;5054823;28;62013;-82
2022/12/04 05:21:26;;;;;;;;;39.75;27.50;;;;;;;;5065083;28;61747;-82
2022/12/04 05:23:51;;;;;;;;;29.25;21.75;;;;;;;;5066014;28;61853;-82
2022/12/04 05:26:16;;;;;;;;;22.75;21.75;;;;;;;;5065992;28;61800;-82
2022/12/04 05:28:42;;;;;;;;;29.00;25.25;;;;;;;;5064586;28;61887;-82
2022/12/04 05:31:07;;;;;;;;;27.25;20.50;;;;;;;;5065664;28;62148;-82
2022/12/04 05:33:32;;;;;;;;;26.25;22.50;;;;;;;;5064411;28;61720;-80
2022/12/04 05:35:58;;;;;;;;;31.00;21.25;;;;;;;;5065320;28;61810;-82
2022/12/04 05:38:23;;;;;;;;;26.00;21.00;;;;;;;;5064096;28;61845;-81
2022/12/04 05:40:48;;;;;;;;;35.50;23.75;;;;;;;;5064917;28;61778;-82
2022/12/04 05:43:14;;;;;;;;;25.25;19.50;;;;;;;;5046320;28;61900;-82
2022/12/04 05:45:39;;;;;;;;;29.50;24.75;;;;;;;;5064808;28;62047;-82
2022/12/04 05:48:04;;;;;;;;;29.00;21.00;;;;;;;;5063440;28;62040;-81
2022/12/04 05:50:30;;;;;;;;;24.75;22.00;;;;;;;;5045279;28;61992;-80
2022/12/04 05:52:55;;;;;;;;;33.75;22.50;;;;;;;;5064786;28;61872;-81
2022/12/04 05:55:20;;;;;;;;;17.00;14.75;;;;;;;;5064599;28;62101;-81
2022/12/04 05:57:45;;;;;;;;;24.50;19.50;;;;;;;;5063476;28;62137;-81
2022/12/04 06:00:11;;;;;;;;;28.00;20.00;;;;;;;;5063830;28;61889;-81
2022/12/04 06:02:36;;;;;;;;;26.25;20.25;;;;;;;;5064087;28;61860;-81
2022/12/04 06:05:02;;;;;;;;;26.00;24.25;;;;;;;;5045875;28;62990;-82
2022/12/04 06:07:27;;;;;;;;;37.50;24.75;;;;;;;;5063417;28;62606;-82
2022/12/04 06:09:54;;;;;;;;;25.50;14.00;;;;;;;;5063746;28;61702;-82
2022/12/04 06:12:19;;;;;;;;;36.50;25.50;;;;;;;;5063937;28;61806;-81
2022/12/04 06:14:44;;;;;;;;;34.50;25.00;;;;;;;;5064281;28;61634;-82
2022/12/04 06:17:09;;;;;;;;;34.75;24.00;;;;;;;;5063031;28;61954;-81
2022/12/04 06:19:35;;;;;;;;;23.75;20.75;;;;;;;;5045011;28;61931;-82
2022/12/04 06:22:00;;;;;;;;;26.50;21.50;;;;;;;;5045718;28;62137;-81
2022/12/04 06:24:25;;;;;;;;;30.75;22.75;;;;;;;;5063847;28;61868;-82
2022/12/04 06:26:54;;;;;;;;;28.25;26.25;;;;;;;;5062937;28;62168;-82
2022/12/04 06:29:20;;;;;;;;;26.50;21.50;;;;;;;;5063512;28;62198;-82
2022/12/04 06:31:45;;;;;;;;;29.00;21.75;;;;;;;;5063222;28;61954;-82
2022/12/04 06:34:10;;;;;;;;;24.25;21.00;;;;;;;;5063240;28;62048;-81
2022/12/04 06:36:36;;;;;;;;;26.00;21.25;;;;;;;;5044824;28;64871;-82
2022/12/04 06:39:01;;;;;;;;;23.50;11.50;;;;;;;;5045782;28;61705;-81
2022/12/04 06:41:27;;;;;;;;;30.75;26.75;;;;;;;;5064083;28;61731;-82
2022/12/04 06:43:52;;;;;;;;;28.00;22.00;;;;;;;;5046452;28;61833;-82
2022/12/04 06:46:19;;;;;;;;;27.50;18.00;;;;;;;;5064871;28;61864;-82
2022/12/04 06:48:45;;;;;;;;;26.00;18.75;;;;;;;;5046119;28;61813;-81
2022/12/04 06:51:12;;;;;;;;;23.75;20.00;;;;;;;;5067456;28;61728;-81
2022/12/04 06:53:41;;;;;;;;;27.50;22.50;;;;;;;;5067524;28;61863;-81
2022/12/04 06:56:10;;;;;;;;;29.00;25.00;;;;;;;;5045940;28;63390;-82
2022/12/04 06:58:35;;;;;;;;;25.75;24.00;;;;;;;;5048469;28;61964;-82
2022/12/04 07:01:07;;;;;;;;;32.25;22.75;;;;;;;;5050244;28;62019;-81
2022/12/04 07:03:33;;;;;;;;;37.00;25.50;;;;;;;;5067709;28;61765;-81
2022/12/04 07:05:58;;;;;;;;;38.50;26.25;;;;;;;;5066491;28;62005;-81
2022/12/04 07:08:23;;;;;;;;;30.25;23.00;;;;;;;;5048683;28;61665;-80
2022/12/04 07:10:48;;;;;;;;;31.25;24.50;;;;;;;;5069421;28;61995;-82
2022/12/04 07:13:14;;;;;;;;;36.50;26.00;;;;;;;;5073517;28;61690;-81
2022/12/04 07:15:39;;;;;;;;;38.00;25.75;;;;;;;;5073228;28;61880;-82
2022/12/04 07:18:04;;;;;;;;;32.00;21.50;;;;;;;;5073218;28;61917;-81
2022/12/04 07:20:30;;;;;;;;;22.75;20.75;;;;;;;;5072327;28;61802;-82
2022/12/04 07:22:55;;;;;;;;;23.25;21.25;;;;;;;;5054721;28;62356;-80
2022/12/04 07:25:20;;;;;;;;;26.00;17.75;;;;;;;;5052725;28;64919;-81
2022/12/04 07:27:45;;;;;;;;;27.50;21.25;;;;;;;;5054239;28;61787;-82
2022/12/04 07:30:11;;;;;;;;;26.50;23.75;;;;;;;;5072854;28;61212;-82
2022/12/04 07:32:36;;;;;;;;;33.75;24.00;;;;;;;;5072278;28;61914;-82
2022/12/04 07:35:02;;;;;;;;;28.00;22.75;;;;;;;;5053164;28;63736;-82
2022/12/04 07:37:27;;;;;;;;;22.75;21.50;;;;;;;;5073191;28;61888;-81
2022/12/04 07:39:52;;;;;;;;;35.50;25.00;;;;;;;;5053315;28;61798;-83
2022/12/04 07:42:18;;;;;;;;;32.75;29.50;;;;;;;;5054852;28;61846;-84
2022/12/04 07:44:44;;;;;;;;;31.75;27.00;;;;;;;;5054320;28;63562;-80
2022/12/04 07:47:09;;;;;;;;;37.25;25.50;;;;;;;;5070127;28;61997;-81
2022/12/04 07:49:34;;;;;;;;;20.25;17.75;;;;;;;;5069891;28;61798;-82
2022/12/04 07:51:59;;;;;;;;;31.25;24.00;;;;;;;;5069709;28;62144;-81
2022/12/04 07:54:25;;;;;;;;;27.50;22.00;;;;;;;;5050265;28;63624;-82
2022/12/04 07:56:50;;;;;;;;;30.00;22.25;;;;;;;;5051134;28;61915;-80
2022/12/04 07:59:15;;;;;;;;;25.75;19.00;;;;;;;;5068270;28;61867;-80
2022/12/04 08:01:40;;;;;;;;;33.00;26.00;;;;;;;;5069825;28;61698;-81
2022/12/04 08:04:06;;;;;;;;;23.50;23.25;;;;;;;;5050960;28;63868;-81
2022/12/04 08:06:32;;;;;;;;;26.50;21.25;;;;;;;;5070447;28;61872;-80
2022/12/04 08:08:57;;;;;;;;;25.25;23.50;;;;;;;;5069222;28;61889;-81
2022/12/04 08:11:23;;;;;;;;;32.75;22.00;;;;;;;;5069399;28;62090;-81
2022/12/04 08:14:10;;;;;;;;;28.00;22.75;;;;;;;;5068039;28;61912;-80
2022/12/04 08:16:35;;;;;;;;;32.50;22.00;;;;;;;;5067787;28;61891;-79
2022/12/04 08:19:02;;;;;;;;;29.50;23.50;;;;;;;;5067311;28;61950;-77
2022/12/04 08:21:28;;;;;;;;;26.50;24.25;;;;;;;;5067645;28;61806;-78
2022/12/04 08:23:55;;;;;;;;;31.50;24.25;;;;;;;;5063291;28;62097;-80
2022/12/04 08:26:21;;;;;;;;;36.00;21.75;;;;;;;;5065737;28;61754;-80
2022/12/04 08:28:46;;;;;;;;;30.00;25.25;;;;;;;;5064875;28;61831;-81
2022/12/04 08:31:17;;;;;;;;;31.00;21.75;;;;;;;;5064503;28;61948;-80
2022/12/04 08:33:43;;;;;;;;;30.75;22.50;;;;;;;;5063993;28;62643;-81
2022/12/04 08:36:09;;;;;;;;;40.50;24.00;;;;;;;;5046726;28;61973;-81
2022/12/04 08:38:35;;;;;;;;;29.50;24.00;;;;;;;;5064544;28;61971;-81
2022/12/04 08:41:01;;;;;;;;;27.50;20.50;;;;;;;;5065160;28;61953;-80
2022/12/04 08:43:26;;;;;;;;;29.00;24.00;;;;;;;;5044979;28;63758;-80
2022/12/04 08:45:56;;;;;;;;;35.00;23.75;;;;;;;;5062803;28;61866;-80
2022/12/04 08:48:21;;;;;;;;;34.50;23.50;;;;;;;;5062098;28;61976;-80
2022/12/04 08:50:46;;;;;;;;;38.00;26.25;;;;;;;;5062722;28;61801;-80
2022/12/04 08:53:11;;;;;;;;;32.00;27.50;;;;;;;;5063938;28;63346;-81
2022/12/04 08:55:37;;;;;;;;;30.25;25.75;;;;;;;;5063465;28;61913;-80
2022/12/04 08:58:03;;;;;;;;;39.75;31.75;;;;;;;;5064460;28;61856;-80
2022/12/04 09:00:30;;;;;;;;;34.50;26.50;;;;;;;;5050169;28;62127;-80
2022/12/04 09:02:55;;;;;;;;;29.75;24.75;;;;;;;;5063428;28;62653;-80
2022/12/04 09:05:21;;;;;;;;;40.50;25.75;;;;;;;;5063555;28;62028;-80
2022/12/04 09:07:46;;;;;;;;;35.50;27.00;;;;;;;;5065361;28;61805;-79
2022/12/04 09:10:12;;;;;;;;;38.75;30.50;;;;;;;;5063865;28;61806;-81
2022/12/04 09:12:37;;;;;;;;;34.50;26.00;;;;;;;;5062853;28;62320;-82
2022/12/04 09:15:02;;;;;;;;;33.50;23.25;;;;;;;;5063914;28;62093;-81
2022/12/04 09:17:28;;;;;;;;;33.25;27.00;;;;;;;;5063074;28;61882;-80
2022/12/04 09:19:53;;;;;;;;;33.25;26.25;;;;;;;;5063103;28;61982;-80
2022/12/04 09:22:19;;;;;;;;;40.75;22.50;;;;;;;;5048058;28;64508;-80
2022/12/04 09:24:44;;;;;;;;;33.25;25.75;;;;;;;;5063685;28;61707;-80
2022/12/04 09:27:10;;;;;;;;;32.25;23.75;;;;;;;;5066390;28;61714;-81
2022/12/04 09:29:35;;;;;;;;;40.50;27.00;;;;;;;;5048328;28;61767;-80
2022/12/04 09:32:01;;;;;;;;;42.00;24.50;;;;;;;;5065008;28;62565;-80
2022/12/04 09:34:26;;;;;;;;;47.00;29.50;;;;;;;;5063541;28;62377;-79
2022/12/04 09:36:51;;;;;;;;;34.25;25.25;;;;;;;;5082956;28;61845;-79
2022/12/04 09:39:17;;;;;;;;;32.75;25.75;;;;;;;;5068488;28;61823;-79
2022/12/04 09:41:51;;;;;;;;;37.00;23.00;;;;;;;;5067530;28;61941;-80
2022/12/04 09:44:16;;;;;;;;;39.25;34.25;;;;;;;;5066383;28;61808;-80
2022/12/04 09:46:54;;;;;;;;;47.00;33.00;;;;;;;;5064891;28;62588;-80
2022/12/04 09:49:22;;;;;;;;;45.75;33.00;;;;;;;;5044756;28;62237;-80
2022/12/04 09:51:49;;;;;;;;;45.25;36.75;;;;;;;;5044710;28;63587;-80
2022/12/04 09:54:19;;;;;;;;;83.33;57.67;;;;;;;;5065074;28;62203;-80
2022/12/04 09:56:50;;;;;;;;;38.00;32.50;;;;;;;;5046512;28;61841;-80
2022/12/04 09:59:22;;;;;;;;;45.50;32.25;;;;;;;;5065530;28;61792;-80
2022/12/04 10:01:50;;;;;;;;;50.75;31.50;;;;;;;;5063394;28;61802;-80
2022/12/04 10:04:16;;;;;;;;;55.75;35.50;;;;;;;;5063733;28;61884;-79
2022/12/04 10:06:42;;;;;;;;;58.50;39.75;;;;;;;;5064184;28;61924;-80
2022/12/04 10:09:33;;;;;;;;;39.75;31.25;;;;;;;;5064204;28;61958;-79
2022/12/04 10:12:09;;;;;;;;;54.00;38.00;;;;;;;;5022776;28;61750;-80
2022/12/04 10:14:49;;;;;;;;;44.50;31.25;;;;;;;;5060716;28;61945;-80
2022/12/04 10:17:35;;;;;;;;;47.00;36.25;;;;;;;;5061271;28;62002;-79
2022/12/04 10:20:19;;;;;;;;;56.25;44.25;;;;;;;;5058583;28;61977;-79
2022/12/04 10:22:50;;;;;;;;;49.00;37.25;;;;;;;;5055387;28;61942;-79
2022/12/04 10:25:19;;;;;;;;;54.75;41.00;;;;;;;;5043523;28;61945;-80
2022/12/04 10:27:54;;;;;;;;;36.75;31.25;;;;;;;;5062292;28;61783;-80
2022/12/04 10:30:20;;;;;;;;;33.00;27.50;;;;;;;;5062664;28;61770;-79
2022/12/04 10:32:47;;;;;;;;;59.25;43.75;;;;;;;;5063105;28;64101;-79
2022/12/04 10:35:23;;;;;;;;;33.25;30.75;;;;;;;;5071581;28;61746;-79
2022/12/04 10:38:03;;;;;;;;;45.00;32.50;;;;;;;;5062603;28;61922;-80
2022/12/04 10:40:40;;;;;;;;;48.50;38.75;;;;;;;;5043678;28;61916;-79
2022/12/04 10:43:14;;;;;;;;;40.25;30.50;;;;;;;;5060353;28;62898;-79
2022/12/04 10:45:40;;;;;;;;;41.00;32.75;;;;;;;;5043527;28;61948;-80
2022/12/04 10:48:07;;;;;;;;;33.00;23.75;;;;;;;;5059532;28;62079;-80
2022/12/04 10:50:33;;;;;;;;;36.25;27.75;;;;;;;;5060652;28;61961;-79
2022/12/04 10:52:59;;;;;;;;;43.75;34.75;;;;;;;;5060367;28;62420;-80
2022/12/04 10:55:31;;;;;;;;;37.75;27.50;;;;;;;;5061717;28;61723;-80
2022/12/04 10:57:57;;;;;;;;;49.00;31.00;;;;;;;;5061823;28;61973;-80
2022/12/04 11:00:23;;;;;;;;;34.75;29.00;;;;;;;;5058894;28;61839;-80
2022/12/04 11:02:49;;;;;;;;;38.50;27.75;;;;;;;;5061246;28;61821;-80
2022/12/04 11:05:23;;;;;;;;;33.50;27.75;;;;;;;;5060622;28;62103;-80
2022/12/04 11:07:50;;;;;;;;;38.00;30.75;;;;;;;;5061303;28;62090;-80
2022/12/04 11:10:33;;;;;;;;;45.00;37.25;;;;;;;;5061468;28;61944;-80
2022/12/04 11:13:01;;;;;;;;;30.25;25.75;;;;;;;;5058371;28;62056;-81
2022/12/04 11:15:27;;;;;;;;;52.00;40.00;;;;;;;;5042527;28;63083;-73
2022/12/04 11:17:52;;;;;;;;;42.25;34.50;;;;;;;;5060329;28;61869;-72
2022/12/04 11:20:21;;;;;;;;;46.25;39.50;;;;;;;;5060870;28;61889;-72
2022/12/04 11:22:55;;;;;;;;;77.67;53.33;;;;;;;;5060189;28;61730;-73
2022/12/04 11:25:24;;;;;;;;;47.75;37.00;;;;;;;;5057042;28;61894;-73
2022/12/04 11:27:52;;;;;;;;;42.75;33.00;;;;;;;;5060019;28;61833;-73
2022/12/04 11:30:20;;;;;;;;;51.25;35.75;;;;;;;;5060495;28;62883;-71
2022/12/04 11:32:45;;;;;;;;;48.00;36.50;;;;;;;;5039741;28;61932;-72
2022/12/04 11:35:16;;;;;;;;;37.50;30.75;;;;;;;;5060475;28;61837;-72
2022/12/04 11:37:49;;;;;;;;;43.75;31.00;;;;;;;;5042997;28;61905;-72
2022/12/04 11:40:17;;;;;;;;;49.00;39.00;;;;;;;;5060949;28;61916;-72
2022/12/04 11:42:43;;;;;;;;;41.25;28.75;;;;;;;;5060157;28;61803;-71
2022/12/04 11:45:19;;;;;;;;;49.00;31.50;;;;;;;;5059643;28;62004;-71
2022/12/04 11:47:52;;;;;;;;;42.50;32.75;;;;;;;;5061659;28;61746;-71
2022/12/04 11:50:38;;;;;;;;;41.00;31.75;;;;;;;;5060425;28;62061;-71
2022/12/04 11:53:03;;;;;;;;;46.25;36.00;;;;;;;;5060540;28;62561;-71
2022/12/04 11:55:44;;;;;;;;;55.25;39.25;;;;;;;;5061255;28;61851;-72
2022/12/04 11:58:18;;;;;;;;;49.75;41.00;;;;;;;;5058309;28;61856;-71
2022/12/04 12:00:58;;;;;;;;;46.00;34.50;;;;;;;;5062524;28;61911;-71
2022/12/04 12:03:33;;;;;;;;;45.75;36.50;;;;;;;;5061320;28;62046;-71
2022/12/04 12:05:58;;;;;;;;;43.50;38.00;;;;;;;;5050450;28;61948;-71
2022/12/04 12:08:47;;;;;;;;;43.25;32.25;;;;;;;;5055619;28;61907;-78
2022/12/04 12:11:29;;;;;;;;;43.50;30.25;;;;;;;;5035961;28;62427;-77
2022/12/04 12:14:18;;;;;;;;;37.50;26.50;;;;;;;;5024671;28;63842;-78
2022/12/04 12:17:20;;;;;;;;;37.00;30.50;;;;;;;;5035382;28;62508;-78
2022/12/04 12:19:45;;;;;;;;;56.50;43.75;;;;;;;;4981166;28;61873;-79
2022/12/04 12:22:11;;;;;;;;;45.25;35.75;;;;;;;;4981839;28;61872;-79
2022/12/04 12:24:48;;;;;;;;;44.50;34.25;;;;;;;;4980092;28;63424;-79
2022/12/04 12:27:32;;;;;;;;;49.25;38.25;;;;;;;;4981574;28;62003;-79
2022/12/04 12:30:03;;;;;;;;;36.50;29.75;;;;;;;;4981456;28;61973;-79
2022/12/04 12:32:33;;;;;;;;;45.75;33.75;;;;;;;;4995083;28;61832;-79
2022/12/04 12:34:59;;;;;;;;;40.00;29.00;;;;;;;;5000728;28;64391;-79
2022/12/04 12:37:34;;;;;;;;;49.75;40.75;;;;;;;;5001790;28;61983;-78
2022/12/04 12:39:59;;;;;;;;;40.25;33.75;;;;;;;;5009711;28;62050;-79
2022/12/04 12:42:31;;;;;;;;;33.00;30.75;;;;;;;;5010222;28;62137;-78
2022/12/04 12:45:02;;;;;;;;;56.25;41.75;;;;;;;;5009526;28;62073;-78
2022/12/04 12:47:41;;;;;;;;;59.25;43.25;;;;;;;;5012784;28;61837;-79
2022/12/04 12:50:13;;;;;;;;;63.00;42.00;;;;;;;;5012715;28;63189;-79
2022/12/04 12:52:51;;;;;;;;;51.00;39.75;;;;;;;;5014802;28;62067;-79
2022/12/04 12:55:21;;;;;;;;;44.00;31.50;;;;;;;;5025936;28;63751;-78
2022/12/04 12:58:07;;;;;;;;;38.25;33.00;;;;;;;;5045115;28;62310;-79
2022/12/04 13:00:38;;;;;;;;;43.25;38.00;;;;;;;;5025421;28;62000;-79
2022/12/04 13:03:06;;;;;;;;;41.75;35.00;;;;;;;;5061670;28;61841;-80
2022/12/04 13:05:38;;;;;;;;;46.50;35.50;;;;;;;;5059882;28;62823;-78
2022/12/04 13:08:24;;;;;;;;;46.75;35.00;;;;;;;;5061618;28;62036;-78
2022/12/04 13:11:09;;;;;;;;;34.50;29.50;;;;;;;;5075004;28;61909;-80
2022/12/04 13:13:38;;;;;;;;;58.25;44.00;;;;;;;;5059933;28;61968;-78
2022/12/04 13:16:13;;;;;;;;;59.00;39.50;;;;;;;;5061336;28;61863;-78
2022/12/04 13:18:48;;;;;;;;;53.50;42.00;;;;;;;;5077229;28;62056;-79
2022/12/04 13:21:36;;;;;;;;;42.00;35.75;;;;;;;;5061563;28;62001;-77
2022/12/04 13:24:22;;;;;;;;;55.50;38.50;;;;;;;;5047551;28;61913;-80
2022/12/04 13:26:55;;;;;;;;;57.25;41.00;;;;;;;;4962301;28;61986;-82
2022/12/04 13:29:23;;;;;;;;;63.00;43.25;;;;;;;;4960194;28;62177;-80
2022/12/04 13:31:54;;;;;;;;;48.75;41.00;;;;;;;;4948860;28;61991;-80
2022/12/04 13:34:34;;;;;;;;;52.00;39.25;;;;;;;;4956444;28;63332;-78
2022/12/04 13:37:03;;;;;;;;;52.50;40.25;;;;;;;;4941947;28;63656;-78
2022/12/04 13:39:47;;;;;;;;;43.25;37.75;;;;;;;;4943587;28;62285;-84
2022/12/04 13:42:20;;;;;;;;;33.25;28.75;;;;;;;;4951328;28;63208;-80
2022/12/04 13:44:51;;;;;;;;;61.00;36.00;;;;;;;;4951011;28;62161;-80
2022/12/04 13:47:24;;;;;;;;;53.50;35.00;;;;;;;;4935082;28;63530;-80
2022/12/04 13:49:50;;;;;;;;;50.75;37.25;;;;;;;;4958216;28;62519;-80
2022/12/04 13:52:24;;;;;;;;;60.00;45.25;;;;;;;;4960411;28;62044;-80
2022/12/04 13:54:56;;;;;;;;;51.00;39.25;;;;;;;;4959610;28;62217;-80
2022/12/04 13:57:24;;;;;;;;;51.00;38.00;;;;;;;;4944446;28;64259;-80
2022/12/04 14:00:00;;;;;;;;;48.00;40.25;;;;;;;;4940475;28;62082;-81
2022/12/04 14:02:34;;;;;;;;;57.75;41.75;;;;;;;;4950413;28;61931;-79
2022/12/04 14:05:05;;;;;;;;;35.25;30.25;;;;;;;;5052245;28;62000;-79
2022/12/04 14:07:38;;;;;;;;;49.25;35.00;;;;;;;;5044007;28;64685;-79
2022/12/04 14:10:05;;;;;;;;;45.75;33.50;;;;;;;;5058865;28;61865;-79
2022/12/04 14:12:32;;;;;;;;;48.25;38.50;;;;;;;;5061736;28;62123;-79
2022/12/04 14:15:01;;;;;;;;;42.50;32.75;;;;;;;;5061902;28;61923;-81
2022/12/04 14:17:33;;;;;;;;;38.75;30.75;;;;;;;;5067439;28;61848;-82
2022/12/04 14:20:00;;;;;;;;;50.00;36.25;;;;;;;;5071230;28;62055;-84
2022/12/04 14:22:26;;;;;;;;;55.50;39.75;;;;;;;;5065050;28;62163;-79
2022/12/04 14:24:51;;;;;;;;;54.75;37.75;;;;;;;;5061936;28;62266;-80
2022/12/04 14:27:28;;;;;;;;;47.00;38.50;;;;;;;;5064119;28;62146;-82
2022/12/04 14:29:56;;;;;;;;;53.25;35.00;;;;;;;;5063190;28;61747;-83
2022/12/04 14:32:23;;;;;;;;;48.75;38.75;;;;;;;;5048375;28;62222;-82
2022/12/04 14:34:49;;;;;;;;;54.50;39.00;;;;;;;;5066700;28;62917;-81
2022/12/04 14:37:33;;;;;;;;;48.25;39.00;;;;;;;;5063394;28;62129;-81
2022/12/04 14:39:59;;;;;;;;;45.00;36.50;;;;;;;;5065251;28;61969;-82
2022/12/04 14:42:25;;;;;;;;;48.75;37.75;;;;;;;;5068402;28;61786;-81